Huvudsida
METAR-TAF:

METAR-TAF

Flygplatser :

Kristiansand, Norge

Kristiansands flygplats. Kjevik

latitud: 58-12N, longitud: 008-05E, höjd: 1 m

Aktuellt väderrapport

Denna rapport gjordes för 37 minuter sedan, klockan 10:20 UTC
Vind 2 kt varierande vindriktning
Temperatur -1°C
Fuktighet 100%
Tryck 986 hPa
Sikt 10 km eller mer
Få moln på en höjd av 700 ft
Brutna moln på en höjd av 1000 ft

METAR: ENCN 171020Z VRB02KT 9999 FEW007 BKN010 M01/M01 Q0986

Tid: 11:57 (10:57 UTC)

Väderprognos

Denna rapport gjordes för 2 timmar och 57 minuter sedan, klockan 08:00 UTC
Prognos gäller från 17 kl. 09 UTC till 17 kl. 18 UTC
Vind 5 kt från nordost
Sikt: 9000 m
Få moln på en höjd av 1200 ft
Brutna moln på en höjd av 2000 ft
Temporärt
från 17 kl. 09 UTC till 17 kl. 11 UTC
Sikt: 1400 m
på en höjd av 800 ft
snöbyar

TAF: ENCN 170800Z 1709/1718 05005KT 9000 FEW012 BKN020 TEMPO 1709/1711 1400 SHSN VV008

Aktuella väderrapporter och prognoser från 4000 flygplatser (METAR- och TAF-rapporter).

De tillgängliga stationerna syns som gula och röda prickar på kartan.

För musen över prickarna för att se namnen på stationerna.

Klicka sedan för att få väderrapporter och prognoser.

För att ändra kartan: Klicka på de gröna knapparna med ett svart kors på för att zooma in; den gröna knappen med ett streck på för att zooma ut; eller på de gröna pilarna för angränsande kartor.


METAR-TAF: